createdAt,value
2023-11-12T00:01:32.347Z,11.85
2023-11-12T00:04:03.855Z,11.90
2023-11-12T00:06:35.976Z,14.10
2023-11-12T00:09:06.659Z,12.77
2023-11-12T00:11:37.315Z,16.48
2023-11-12T00:14:07.641Z,13.48
2023-11-12T00:16:37.614Z,10.68
2023-11-12T00:19:09.286Z,13.32
2023-11-12T00:21:39.413Z,9.18
2023-11-12T00:24:12.928Z,14.73
2023-11-12T00:26:44.675Z,14.20
2023-11-12T00:29:14.635Z,15.35
2023-11-12T00:31:45.063Z,21.33
2023-11-12T00:34:16.768Z,10.52
2023-11-12T00:36:46.189Z,13.27
2023-11-12T00:39:18.848Z,16.85
2023-11-12T00:41:49.173Z,12.85
2023-11-12T00:44:19.091Z,14.73
2023-11-12T00:46:48.931Z,18.38
2023-11-12T00:49:20.267Z,16.60
2023-11-12T00:51:50.784Z,17.63
2023-11-12T00:54:20.907Z,13.27
2023-11-12T00:56:51.229Z,16.05
2023-11-12T00:59:22.858Z,19.17
2023-11-12T01:01:52.737Z,20.15
2023-11-12T01:04:28.847Z,15.65
2023-11-12T01:07:01.169Z,15.15
2023-11-12T01:09:33.959Z,10.43
2023-11-12T01:12:04.773Z,14.98
2023-11-12T01:14:35.306Z,14.40
2023-11-12T01:17:06.667Z,16.67
2023-11-12T01:19:38.744Z,9.90
2023-11-12T01:22:11.537Z,15.60
2023-11-12T01:24:42.832Z,11.07
2023-11-12T01:27:13.319Z,9.75
2023-11-12T01:29:43.281Z,7.80
2023-11-12T01:32:14.260Z,13.05
2023-11-12T01:35:04.678Z,18.00
2023-11-12T01:37:34.579Z,10.77
2023-11-12T01:40:05.659Z,11.18
2023-11-12T01:42:36.009Z,9.82
2023-11-12T01:45:12.502Z,8.57
2023-11-12T01:47:45.756Z,11.35
2023-11-12T01:52:51.200Z,13.68
2023-11-12T01:55:23.660Z,12.73
2023-11-12T01:57:58.523Z,11.53
2023-11-12T02:00:29.106Z,8.90
2023-11-12T02:03:05.721Z,8.27
2023-11-12T02:05:38.651Z,10.00
2023-11-12T02:08:10.435Z,9.20
2023-11-12T02:10:44.526Z,8.07
2023-11-12T02:13:15.480Z,6.97
2023-11-12T02:15:49.055Z,10.73
2023-11-12T02:18:20.027Z,9.32
2023-11-12T02:20:52.827Z,10.73
2023-11-12T02:23:23.340Z,7.80
2023-11-12T02:25:55.209Z,25.58
2023-11-12T02:28:27.028Z,8.57
2023-11-12T02:30:56.987Z,11.45
2023-11-12T02:33:33.843Z,7.90
2023-11-12T02:36:04.860Z,8.07
2023-11-12T02:38:35.090Z,8.77
2023-11-12T02:41:11.167Z,10.10
2023-11-12T02:43:43.432Z,16.58
2023-11-12T02:46:17.527Z,14.35
2023-11-12T02:49:13.789Z,13.48
2023-11-12T02:51:46.516Z,13.85
2023-11-12T02:54:18.569Z,14.20
2023-11-12T02:56:50.072Z,15.80
2023-11-12T02:59:21.887Z,10.48
2023-11-12T03:01:51.747Z,12.68
2023-11-12T03:04:22.228Z,12.40
2023-11-12T03:06:55.395Z,12.65
2023-11-12T03:09:30.192Z,9.82
2023-11-12T03:12:04.283Z,13.60
2023-11-12T03:14:35.083Z,11.05
2023-11-12T03:17:05.649Z,9.75
2023-11-12T03:19:37.161Z,9.98
2023-11-12T03:22:07.224Z,11.35
2023-11-12T03:24:38.281Z,12.45
2023-11-12T03:27:10.559Z,9.73
2023-11-12T03:29:40.722Z,10.23
2023-11-12T03:32:11.674Z,14.30
2023-11-12T03:34:45.824Z,9.00
2023-11-12T03:37:16.279Z,14.32
2023-11-12T03:39:46.424Z,21.17
2023-11-12T03:42:18.885Z,14.43
2023-11-12T03:44:50.777Z,13.80
2023-11-12T03:47:21.012Z,14.40
2023-11-12T03:49:50.807Z,18.27
2023-11-12T03:52:20.784Z,14.20
2023-11-12T03:54:50.602Z,11.38
2023-11-12T03:57:22.605Z,15.85
2023-11-12T03:59:53.391Z,15.88
2023-11-12T04:02:23.621Z,21.75
2023-11-12T04:04:53.828Z,13.40
2023-11-12T04:07:24.801Z,9.85
2023-11-12T04:10:01.214Z,10.15
2023-11-12T04:12:32.489Z,10.95
2023-11-12T04:15:02.680Z,12.60
2023-11-12T04:17:33.419Z,12.10
2023-11-12T04:20:04.082Z,17.02
2023-11-12T04:22:34.170Z,14.30
2023-11-12T04:25:04.507Z,11.85
2023-11-12T04:27:39.431Z,11.77
2023-11-12T04:30:13.190Z,15.02
2023-11-12T04:32:43.026Z,15.88
2023-11-12T04:35:14.760Z,10.63
2023-11-12T04:37:44.586Z,14.88
2023-11-12T04:40:17.938Z,22.33
2023-11-12T04:42:49.663Z,15.43
2023-11-12T04:45:21.472Z,20.48
2023-11-12T04:47:52.009Z,17.27
2023-11-12T04:50:25.029Z,21.60
2023-11-12T04:53:00.274Z,21.00
2023-11-12T04:55:30.815Z,22.40
2023-11-12T04:58:02.962Z,15.95
2023-11-12T05:00:36.672Z,17.05
2023-11-12T05:03:07.190Z,17.00
2023-11-12T05:05:37.636Z,16.65
2023-11-12T05:08:07.067Z,18.88
2023-11-12T05:10:44.948Z,11.57
2023-11-12T05:13:17.595Z,16.05
2023-11-12T05:15:47.930Z,16.42
2023-11-12T05:18:17.899Z,13.88
2023-11-12T05:20:49.004Z,18.65
2023-11-12T05:23:18.696Z,15.50
2023-11-12T05:25:48.733Z,12.93
2023-11-12T05:28:20.402Z,18.92
2023-11-12T05:30:50.537Z,14.57
2023-11-12T05:33:20.339Z,18.48
2023-11-12T05:35:52.745Z,17.88
2023-11-12T05:38:23.110Z,20.58
2023-11-12T05:40:53.309Z,15.95
2023-11-12T05:43:25.075Z,14.75
2023-11-12T05:45:55.531Z,17.90
2023-11-12T05:48:25.481Z,20.45
2023-11-12T05:51:02.564Z,17.23
2023-11-12T05:53:32.274Z,17.02
2023-11-12T05:56:01.516Z,14.90
2023-11-12T05:58:32.301Z,14.10
2023-11-12T06:01:01.156Z,12.35
2023-11-12T06:03:30.947Z,16.23
2023-11-12T06:05:59.966Z,17.60
2023-11-12T06:08:28.793Z,21.58
2023-11-12T06:10:57.578Z,19.33
2023-11-12T06:13:26.435Z,15.88
2023-11-12T06:15:56.635Z,14.55
2023-11-12T06:18:25.707Z,17.10
2023-11-12T06:20:54.697Z,17.25
2023-11-12T06:23:23.491Z,13.18
2023-11-12T06:25:52.458Z,13.15
2023-11-12T06:28:23.760Z,18.23
2023-11-12T06:30:55.161Z,12.55
2023-11-12T06:33:25.633Z,17.70
2023-11-12T06:35:54.541Z,11.15
2023-11-12T06:38:24.593Z,13.43
2023-11-12T06:40:53.701Z,13.52
2023-11-12T06:43:22.830Z,16.95
2023-11-12T06:45:51.992Z,16.75
2023-11-12T06:48:25.704Z,14.07
2023-11-12T06:50:56.140Z,15.23
2023-11-12T06:53:25.042Z,15.07
2023-11-12T06:55:54.398Z,25.88
2023-11-12T06:58:25.784Z,55.63
2023-11-12T07:00:57.110Z,32.58
2023-11-12T07:03:28.143Z,21.05
2023-11-12T07:06:00.238Z,23.65
2023-11-12T07:08:32.296Z,25.85
2023-11-12T07:11:03.939Z,21.65
2023-11-12T07:13:32.972Z,23.00
2023-11-12T07:16:03.786Z,25.48
2023-11-12T07:18:45.433Z,24.83
2023-11-12T07:21:32.602Z,23.27
2023-11-12T07:24:01.803Z,24.13
2023-11-12T07:26:31.152Z,25.42
2023-11-12T07:29:00.308Z,24.30
2023-11-12T07:31:30.627Z,24.90
2023-11-12T07:33:59.739Z,23.75
2023-11-12T07:36:32.408Z,27.00
2023-11-12T07:39:02.965Z,23.65
2023-11-12T07:41:39.792Z,35.38
2023-11-12T07:44:13.453Z,25.85
2023-11-12T07:46:42.963Z,28.75
2023-11-12T07:49:13.513Z,26.58
2023-11-12T07:51:49.733Z,20.83
2023-11-12T07:56:48.209Z,24.00
2023-11-12T07:59:17.336Z,20.10
2023-11-12T08:01:49.603Z,23.13
2023-11-12T08:04:19.545Z,21.53
2023-11-12T08:06:52.288Z,20.83
2023-11-12T08:09:21.310Z,19.73
2023-11-12T08:11:50.263Z,20.77
2023-11-12T08:14:19.395Z,23.15
2023-11-12T08:16:48.445Z,20.25
2023-11-12T08:19:17.646Z,26.98
2023-11-12T08:21:46.895Z,28.35
2023-11-12T08:24:17.894Z,24.20
2023-11-12T08:26:46.934Z,45.45
2023-11-12T08:29:17.262Z,86.82
2023-11-12T08:31:46.346Z,32.53
2023-11-12T08:34:15.844Z,30.05
2023-11-12T08:36:44.628Z,29.50
2023-11-12T08:39:14.625Z,31.13
2023-11-12T08:41:48.157Z,31.48
2023-11-12T08:44:19.528Z,26.50
2023-11-12T08:46:51.486Z,30.13
2023-11-12T08:49:22.907Z,25.10
2023-11-12T08:51:51.806Z,33.15
2023-11-12T08:54:21.046Z,30.90
2023-11-12T08:56:54.726Z,22.85
2023-11-12T08:59:24.343Z,26.58
2023-11-12T09:01:53.889Z,24.92
2023-11-12T09:04:23.313Z,28.45
2023-11-12T09:06:52.446Z,25.27
2023-11-12T09:09:21.786Z,24.00
2023-11-12T09:11:50.821Z,32.25
2023-11-12T09:14:23.724Z,30.70
2023-11-12T09:16:55.143Z,21.13
2023-11-12T09:19:24.145Z,23.55
2023-11-12T09:21:54.558Z,32.92
2023-11-12T09:24:24.140Z,23.58
2023-11-12T09:26:53.737Z,30.52
2023-11-12T09:29:24.960Z,29.25
2023-11-12T09:31:53.918Z,34.42
2023-11-12T09:34:23.227Z,23.67
2023-11-12T09:36:53.019Z,24.75
2023-11-12T09:39:24.706Z,28.42
2023-11-12T09:42:00.107Z,21.77
2023-11-12T09:44:33.445Z,29.13
2023-11-12T09:47:13.614Z,146.43
2023-11-12T09:49:42.920Z,49.40
2023-11-12T09:52:14.508Z,33.97
2023-11-12T09:54:45.519Z,27.92
2023-11-12T09:57:15.020Z,29.45
2023-11-12T09:59:47.804Z,30.35
2023-11-12T10:02:18.961Z,28.05
2023-11-12T10:04:59.200Z,20.95
2023-11-12T10:07:30.480Z,25.63
2023-11-12T10:10:22.864Z,26.50
2023-11-12T10:12:53.614Z,25.35
2023-11-12T10:15:28.416Z,25.55
2023-11-12T10:18:01.047Z,24.95
2023-11-12T10:20:38.377Z,22.42
2023-11-12T10:23:32.392Z,24.38
2023-11-12T10:26:12.662Z,23.37
2023-11-12T10:28:47.727Z,33.65
2023-11-12T10:31:19.009Z,27.52
2023-11-12T10:34:01.193Z,25.63
2023-11-12T10:36:30.285Z,25.25
2023-11-12T10:39:12.684Z,25.00
2023-11-12T10:41:45.116Z,26.63
2023-11-12T10:44:18.354Z,24.85
2023-11-12T10:46:54.148Z,21.45
2023-11-12T10:49:25.230Z,23.58
2023-11-12T10:51:57.211Z,27.52
2023-11-12T10:54:27.756Z,20.08
2023-11-12T10:59:32.285Z,19.75
2023-11-12T11:02:03.196Z,20.85
2023-11-12T11:04:35.842Z,29.58
2023-11-12T11:07:05.083Z,30.15
2023-11-12T11:09:34.397Z,29.17
2023-11-12T11:12:03.500Z,39.63
2023-11-12T11:14:35.571Z,41.72
2023-11-12T11:17:09.639Z,38.22
2023-11-12T11:19:57.003Z,49.35
2023-11-12T11:22:39.927Z,39.70
2023-11-12T11:25:26.635Z,42.63
2023-11-12T11:28:23.301Z,47.95
2023-11-12T11:31:18.140Z,43.28
2023-11-12T11:33:53.333Z,40.50
2023-11-12T11:36:24.810Z,33.95
2023-11-12T11:39:26.378Z,42.53
2023-11-12T11:42:20.188Z,38.88
2023-11-12T11:44:51.441Z,37.70
2023-11-12T11:47:23.823Z,42.10
2023-11-12T11:50:45.877Z,43.60
2023-11-12T11:53:18.440Z,37.20
2023-11-12T11:55:56.638Z,39.88
2023-11-12T11:58:29.887Z,41.80
2023-11-12T12:01:14.033Z,42.13
2023-11-12T12:03:55.100Z,42.35
2023-11-12T12:06:28.586Z,37.20
2023-11-12T12:08:58.948Z,32.83
2023-11-12T12:11:35.210Z,31.95
2023-11-12T12:14:06.175Z,26.00
2023-11-12T12:16:36.014Z,29.63
2023-11-12T12:19:06.477Z,25.83
2023-11-12T12:21:37.873Z,26.58
2023-11-12T12:24:08.159Z,24.38
2023-11-12T12:26:41.022Z,30.23
2023-11-12T12:29:23.150Z,27.65
2023-11-12T12:31:55.171Z,22.30
2023-11-12T12:34:26.098Z,27.02
2023-11-12T12:36:58.503Z,24.73
2023-11-12T12:39:29.799Z,27.00
2023-11-12T12:42:04.962Z,26.67
2023-11-12T12:44:34.882Z,26.42
2023-11-12T12:47:04.046Z,31.63
2023-11-12T12:49:34.673Z,33.53
2023-11-12T12:52:08.145Z,34.05
2023-11-12T12:54:40.037Z,36.17
2023-11-12T12:57:09.133Z,35.90
2023-11-12T12:59:39.050Z,36.85
2023-11-12T13:02:11.152Z,32.78
2023-11-12T13:04:40.725Z,39.08
2023-11-12T13:07:11.687Z,34.53
2023-11-12T13:09:41.998Z,34.08
2023-11-12T13:12:13.637Z,38.53
2023-11-12T13:14:46.631Z,32.88
2023-11-12T13:17:15.740Z,36.58
2023-11-12T13:19:45.830Z,39.75
2023-11-12T13:22:16.279Z,28.10
2023-11-12T13:24:47.552Z,30.63
2023-11-12T13:27:16.672Z,29.58
2023-11-12T13:29:48.961Z,58.35
2023-11-12T13:32:18.575Z,33.53
2023-11-12T13:34:49.192Z,35.53
2023-11-12T13:37:19.535Z,48.85
2023-11-12T13:39:48.601Z,29.98
2023-11-12T13:42:18.234Z,36.08
2023-11-12T13:44:49.709Z,28.25
2023-11-12T13:47:21.507Z,36.92
2023-11-12T13:49:50.852Z,46.65
2023-11-12T13:52:23.447Z,47.63
2023-11-12T13:54:52.507Z,24.17
2023-11-12T13:57:23.215Z,72.38
2023-11-12T13:59:52.500Z,31.88
2023-11-12T14:02:21.768Z,49.35
2023-11-12T14:04:53.747Z,41.83
2023-11-12T14:07:24.945Z,94.85
2023-11-12T14:09:54.318Z,102.85
2023-11-12T14:12:23.670Z,41.65
2023-11-12T14:14:52.643Z,38.38
2023-11-12T14:17:25.459Z,61.22
2023-11-12T14:20:04.597Z,32.53
2023-11-12T14:22:36.021Z,56.95
2023-11-12T14:25:09.005Z,131.55
2023-11-12T14:27:42.052Z,62.00
2023-11-12T14:30:14.757Z,43.42
2023-11-12T14:32:46.341Z,29.17
2023-11-12T14:35:18.186Z,81.13
2023-11-12T14:37:49.040Z,79.97
2023-11-12T14:40:18.518Z,32.08
2023-11-12T14:42:48.005Z,47.22
2023-11-12T14:45:25.861Z,38.95
2023-11-12T14:48:01.317Z,76.95
2023-11-12T14:50:33.915Z,40.30
2023-11-12T14:53:04.353Z,114.50
2023-11-12T14:55:38.151Z,38.13
2023-11-12T14:58:07.631Z,54.80
2023-11-12T15:00:41.246Z,73.32
2023-11-12T15:03:10.369Z,38.92
2023-11-12T15:05:39.248Z,41.25
2023-11-12T15:08:10.517Z,60.05
2023-11-12T15:10:43.287Z,112.85
2023-11-12T15:13:12.651Z,104.82
2023-11-12T15:15:41.582Z,54.20
2023-11-12T15:18:14.197Z,74.00
2023-11-12T15:20:44.824Z,39.13
2023-11-12T15:23:15.312Z,41.17
2023-11-12T15:25:44.487Z,83.28
2023-11-12T15:28:13.965Z,51.92
2023-11-12T15:30:48.335Z,88.70
2023-11-12T15:33:17.551Z,42.53
2023-11-12T15:35:46.696Z,74.68
2023-11-12T15:38:18.315Z,50.38
2023-11-12T15:40:48.058Z,98.60
2023-11-12T15:43:17.639Z,46.33
2023-11-12T15:45:49.175Z,46.90
2023-11-12T15:48:18.364Z,47.72
2023-11-12T15:50:49.197Z,61.35
2023-11-12T15:53:21.657Z,59.55
2023-11-12T15:55:51.117Z,37.33
2023-11-12T15:58:21.248Z,57.35
2023-11-12T16:00:50.450Z,60.97
2023-11-12T16:03:22.164Z,90.80
2023-11-12T16:05:51.417Z,156.05
2023-11-12T16:08:24.980Z,67.03
2023-11-12T16:10:56.557Z,66.63
2023-11-12T16:13:25.823Z,75.32
2023-11-12T16:15:55.524Z,41.97
2023-11-12T16:18:24.867Z,51.45
2023-11-12T16:20:54.017Z,61.22
2023-11-12T16:23:25.316Z,127.10
2023-11-12T16:25:55.588Z,66.47
2023-11-12T16:28:24.552Z,64.55
2023-11-12T16:30:55.293Z,56.65
2023-11-12T16:33:24.914Z,57.30
2023-11-12T16:35:53.762Z,45.53
2023-11-12T16:38:24.437Z,53.60
2023-11-12T16:40:53.325Z,48.22
2023-11-12T16:43:22.793Z,50.55
2023-11-12T16:45:53.083Z,53.28
2023-11-12T16:48:22.627Z,64.95
2023-11-12T16:50:54.139Z,48.97
2023-11-12T16:53:26.209Z,49.72
2023-11-12T16:55:56.064Z,52.45
2023-11-12T16:58:25.312Z,54.25
2023-11-12T17:00:56.185Z,49.30
2023-11-12T17:03:25.524Z,41.88
2023-11-12T17:05:54.788Z,51.67
2023-11-12T17:08:25.387Z,49.50
2023-11-12T17:10:55.524Z,50.17
2023-11-12T17:13:25.000Z,49.38
2023-11-12T17:15:53.987Z,39.85
2023-11-12T17:18:25.744Z,46.05
2023-11-12T17:20:54.905Z,45.65
2023-11-12T17:23:25.609Z,59.95
2023-11-12T17:25:55.286Z,44.28
2023-11-12T17:28:24.952Z,58.28
2023-11-12T17:30:56.719Z,44.92
2023-11-12T17:33:27.373Z,51.25
2023-11-12T17:35:56.679Z,45.88
2023-11-12T17:38:35.078Z,40.05
2023-11-12T17:41:05.059Z,58.33
2023-11-12T17:43:34.168Z,56.97
2023-11-12T17:46:07.065Z,58.90
2023-11-12T17:48:36.265Z,57.45
2023-11-12T17:51:05.661Z,61.97
2023-11-12T17:53:39.432Z,65.13
2023-11-12T17:56:13.433Z,61.55
2023-11-12T17:58:42.478Z,55.65
2023-11-12T18:01:14.015Z,54.83
2023-11-12T18:03:44.065Z,62.00
2023-11-12T18:06:13.608Z,56.08
2023-11-12T18:08:44.072Z,60.10
2023-11-12T18:11:18.141Z,51.00
2023-11-12T18:13:48.936Z,51.70
2023-11-12T18:16:21.195Z,51.53
2023-11-12T18:18:50.646Z,55.42
2023-11-12T18:21:19.826Z,52.08
2023-11-12T18:23:50.062Z,55.47
2023-11-12T18:26:20.024Z,58.58
2023-11-12T18:28:53.204Z,56.38
2023-11-12T18:31:25.320Z,66.18
2023-11-12T18:33:54.551Z,186.80
2023-11-12T18:36:23.790Z,92.82
2023-11-12T18:38:54.103Z,67.18
2023-11-12T18:41:23.327Z,84.90
2023-11-12T18:43:53.363Z,85.38
2023-11-12T18:46:22.943Z,84.53
2023-11-12T18:48:52.282Z,80.00
2023-11-12T18:51:21.478Z,91.68
2023-11-12T18:53:51.610Z,74.95
2023-11-12T18:56:22.160Z,87.13
2023-11-12T18:58:57.059Z,78.22
2023-11-12T19:01:26.505Z,69.18
2023-11-12T19:03:55.991Z,64.13
2023-11-12T19:06:25.707Z,71.63
2023-11-12T19:08:55.053Z,67.45
2023-11-12T19:11:28.027Z,63.40
2023-11-12T19:13:58.525Z,70.25
2023-11-12T19:16:28.579Z,57.92
2023-11-12T19:18:59.827Z,53.13
2023-11-12T19:21:29.176Z,65.35
2023-11-12T19:23:59.303Z,65.40
2023-11-12T19:26:29.082Z,66.15
2023-11-12T19:30:15.010Z,58.33
2023-11-12T19:32:46.790Z,60.25
2023-11-12T19:35:19.765Z,60.15
2023-11-12T19:37:49.175Z,67.60
2023-11-12T19:40:23.439Z,84.38
2023-11-12T19:42:53.788Z,64.28
2023-11-12T19:45:23.024Z,65.80
2023-11-12T19:47:55.638Z,81.72
2023-11-12T19:50:25.219Z,65.07
2023-11-12T19:52:54.127Z,63.90
2023-11-12T19:55:25.395Z,97.57
2023-11-12T19:57:55.991Z,156.70
2023-11-12T20:00:25.309Z,103.00
2023-11-12T20:02:54.481Z,149.98
2023-11-12T20:05:24.021Z,121.13
2023-11-12T20:07:52.974Z,168.55
2023-11-12T20:10:22.499Z,121.22
2023-11-12T20:12:51.775Z,95.75
2023-11-12T20:15:22.730Z,70.30
2023-11-12T20:17:52.744Z,104.80
2023-11-12T20:20:27.412Z,125.82
2023-11-12T20:22:58.640Z,100.45
2023-11-12T20:25:28.395Z,214.95
2023-11-12T20:27:58.199Z,149.90
2023-11-12T20:30:33.666Z,88.15
2023-11-12T20:33:04.364Z,80.95
2023-11-12T20:35:33.978Z,80.25
2023-11-12T20:38:07.061Z,141.68
2023-11-12T20:40:39.349Z,134.10
2023-11-12T20:43:11.912Z,206.98
2023-11-12T20:45:43.023Z,104.75
2023-11-12T20:50:46.418Z,82.43
2023-11-12T20:53:16.309Z,162.90
2023-11-12T20:55:45.462Z,124.43
2023-11-12T20:58:17.666Z,124.68
2023-11-12T21:00:49.269Z,137.63
2023-11-12T21:03:23.440Z,76.95
2023-11-12T21:05:53.250Z,96.57
2023-11-12T21:08:23.410Z,97.00
2023-11-12T21:10:53.924Z,156.13
2023-11-12T21:13:24.409Z,103.55
2023-11-12T21:15:56.768Z,171.98
2023-11-12T21:18:36.389Z,96.77
2023-11-12T21:21:06.632Z,101.75
2023-11-12T21:23:37.098Z,56.53
2023-11-12T21:28:45.062Z,165.63
2023-11-12T21:31:17.068Z,134.55
2023-11-12T21:33:49.605Z,61.60
2023-11-12T21:36:20.287Z,70.22
2023-11-12T21:38:50.625Z,87.85
2023-11-12T21:41:21.013Z,83.10
2023-11-12T21:43:52.375Z,73.47
2023-11-12T21:46:24.490Z,64.38
2023-11-12T21:48:54.675Z,61.80
2023-11-12T21:51:31.713Z,69.45
2023-11-12T21:54:02.061Z,76.40
2023-11-12T21:56:32.193Z,105.75
2023-11-12T21:59:03.197Z,75.47
2023-11-12T22:01:34.691Z,118.85
2023-11-12T22:04:05.427Z,72.82
2023-11-12T22:06:38.396Z,73.13
2023-11-12T22:09:14.946Z,89.90
2023-11-12T22:11:48.015Z,171.57
2023-11-12T22:14:18.239Z,95.80
2023-11-12T22:16:49.478Z,109.45
2023-11-12T22:19:22.094Z,97.78
2023-11-12T22:21:52.063Z,72.70
2023-11-12T22:24:22.883Z,70.00
2023-11-12T22:26:54.058Z,58.13
2023-11-12T22:29:23.977Z,56.08
2023-11-12T22:31:55.711Z,55.20
2023-11-12T22:34:26.340Z,49.53
2023-11-12T22:36:56.009Z,50.78
2023-11-12T22:39:25.981Z,53.75
2023-11-12T22:41:55.976Z,44.13
2023-11-12T22:44:25.963Z,54.58
2023-11-12T22:46:58.511Z,43.75
2023-11-12T22:49:29.335Z,40.20
2023-11-12T22:51:59.668Z,45.97
2023-11-12T22:57:01.168Z,39.13
2023-11-12T22:59:31.191Z,37.90
2023-11-12T23:02:03.360Z,43.03
2023-11-12T23:04:32.619Z,38.83
2023-11-12T23:07:05.209Z,40.95
2023-11-12T23:09:35.677Z,42.78
2023-11-12T23:12:11.896Z,40.97
2023-11-12T23:14:41.779Z,43.10
2023-11-12T23:17:14.200Z,35.10
2023-11-12T23:19:44.514Z,38.17
2023-11-12T23:22:15.751Z,36.00
2023-11-12T23:24:45.786Z,36.97
2023-11-12T23:27:16.774Z,43.05
2023-11-12T23:29:50.298Z,40.28
2023-11-12T23:34:50.777Z,34.22
2023-11-12T23:37:21.317Z,39.35
2023-11-12T23:39:51.132Z,41.15
2023-11-12T23:42:20.842Z,36.20
2023-11-12T23:44:49.975Z,37.55
2023-11-12T23:47:22.108Z,38.17
2023-11-12T23:49:51.666Z,33.05
2023-11-12T23:52:21.222Z,37.38
2023-11-12T23:54:50.567Z,33.05
2023-11-12T23:57:19.861Z,31.13
2023-11-12T23:59:49.499Z,35.92
